Time;durP1;ratioP1;P1;durP2;ratioP2;P2;SDS_P1;SDS_P2;PMS_P1;PMS_P2;Temp;Humidity;BMP_temperature;BMP_pressure;BME280_temperature;BME280_humidity;BME280_pressure;Samples;Min_cycle;Max_cycle;Signal;HPM_P1;HPM_P2
2024/04/03 00:01:02;;;;;;;0.60;0.30;;;10.60;92.20;;;;;;5006044;28;20057;-78
2024/04/03 00:03:28;;;;;;;0.85;0.47;;;10.50;99.90;;;;;;5005944;28;20057;-78
2024/04/03 00:05:54;;;;;;;0.40;0.40;;;10.50;99.90;;;;;;5022477;28;20049;-79
2024/04/03 00:08:19;;;;;;;0.20;0.20;;;10.50;99.90;;;;;;4988232;28;20057;-79
2024/04/03 00:10:46;;;;;;;0.30;0.30;;;10.60;99.90;;;;;;4986219;28;20115;-79
2024/04/03 00:13:12;;;;;;;0.30;0.30;;;10.60;99.90;;;;;;5003053;28;20075;-78
2024/04/03 00:15:38;;;;;;;0.25;0.25;;;10.60;99.90;;;;;;5004263;28;20509;-78
2024/04/03 00:18:04;;;;;;;0.70;0.20;;;10.60;99.90;;;;;;5006137;28;20053;-79
2024/04/03 00:20:30;;;;;;;0.22;0.10;;;10.60;99.90;;;;;;5002678;28;20045;-79
2024/04/03 00:22:57;;;;;;;0.28;0.28;;;10.60;99.90;;;;;;4986376;28;20059;-79
2024/04/03 00:25:23;;;;;;;0.30;0.30;;;10.60;99.90;;;;;;5019030;28;20563;-78
2024/04/03 00:27:52;;;;;;;0.47;0.40;;;10.60;99.90;;;;;;5002387;28;20058;-79
2024/04/03 00:30:18;;;;;;;0.30;0.30;;;10.60;99.90;;;;;;5006155;28;20388;-78
2024/04/03 00:32:45;;;;;;;0.22;0.20;;;10.60;99.90;;;;;;4989367;28;20107;-79
2024/04/03 00:35:10;;;;;;;0.40;0.40;;;10.60;99.90;;;;;;5005915;28;20049;-78
2024/04/03 00:37:36;;;;;;;0.30;0.30;;;10.60;1.00;;;;;;5005030;28;20063;-79
2024/04/03 00:40:03;;;;;;;0.40;0.40;;;10.60;1.00;;;;;;4989147;28;20049;-79
2024/04/03 00:42:29;;;;;;;0.30;0.30;;;10.60;1.00;;;;;;5003351;28;20057;-78
2024/04/03 00:44:55;;;;;;;0.35;0.30;;;10.60;1.00;;;;;;4989713;28;20119;-79
2024/04/03 00:47:21;;;;;;;0.35;0.28;;;10.60;1.00;;;;;;4971656;28;20087;-78
2024/04/03 00:49:47;;;;;;;0.30;0.30;;;10.60;1.00;;;;;;4997243;28;20063;-78
2024/04/03 00:52:13;;;;;;;0.30;0.30;;;10.60;1.00;;;;;;5009255;28;20787;-78
2024/04/03 00:54:43;;;;;;;0.50;0.50;;;10.60;1.00;;;;;;4992198;28;20450;-78
2024/04/03 00:57:09;;;;;;;0.40;0.40;;;10.60;1.00;;;;;;4992892;28;20053;-78
2024/04/03 00:59:36;;;;;;;0.20;0.20;;;10.60;1.00;;;;;;4989705;28;20057;-78
2024/04/03 01:02:02;;;;;;;0.22;0.22;;;10.70;1.00;;;;;;5020713;28;20739;-78
2024/04/03 01:04:27;;;;;;;0.15;0.15;;;10.70;16.30;;;;;;5003053;28;20064;-79
2024/04/03 01:06:53;;;;;;;0.38;0.38;;;10.70;1.00;;;;;;4973635;28;20053;-79
2024/04/03 01:09:19;;;;;;;0.20;0.20;;;10.70;1.00;;;;;;5008416;28;20052;-78
2024/04/03 01:11:46;;;;;;;0.32;0.30;;;10.70;1.00;;;;;;4992189;28;20128;-78
2024/04/03 01:14:13;;;;;;;0.40;0.40;;;10.70;1.00;;;;;;5024881;28;20045;-78
2024/04/03 01:16:42;;;;;;;0.20;0.20;;;10.70;1.00;;;;;;5008673;28;20056;-78
2024/04/03 01:19:08;;;;;;;0.28;0.20;;;10.70;1.00;;;;;;5009445;28;20434;-78
2024/04/03 01:21:34;;;;;;;0.50;0.30;;;10.70;99.90;;;;;;4975836;28;20095;-78
2024/04/03 01:24:00;;;;;;;0.30;0.20;;;10.70;1.00;;;;;;5024786;28;20072;-78
2024/04/03 01:26:27;;;;;;;0.13;0.13;;;10.70;1.00;;;;;;5003662;28;20060;-79
2024/04/03 01:28:53;;;;;;;0.20;0.20;;;10.70;1.00;;;;;;5007598;28;20532;-78
2024/04/03 01:31:19;;;;;;;0.40;0.40;;;10.70;1.00;;;;;;4996947;28;20108;-79
2024/04/03 01:33:45;;;;;;;0.30;0.30;;;10.70;1.00;;;;;;5008662;28;20088;-78
2024/04/03 01:36:11;;;;;;;0.50;0.30;;;10.70;1.00;;;;;;4993759;28;20046;-78
2024/04/03 01:38:37;;;;;;;0.20;0.20;;;10.70;1.00;;;;;;5028858;28;20053;-79
2024/04/03 01:41:03;;;;;;;0.22;0.22;;;10.70;1.00;;;;;;5011617;28;20504;-78
2024/04/03 01:43:29;;;;;;;0.20;0.20;;;10.70;1.00;;;;;;5028370;28;20471;-78
2024/04/03 01:45:58;;;;;;;0.25;0.25;;;10.70;1.00;;;;;;5010442;28;20046;-78
2024/04/03 01:48:24;;;;;;;0.52;0.30;;;10.80;1.00;;;;;;5011792;28;20627;-78
2024/04/03 01:50:49;;;;;;;0.25;0.25;;;10.70;1.00;;;;;;5010126;28;20060;-77
2024/04/03 01:53:15;;;;;;;0.20;0.20;;;10.80;1.00;;;;;;5010043;28;20064;-78
2024/04/03 01:55:52;;;;;;;0.20;0.20;;;10.70;1.00;;;;;;4989614;28;20122;-78
2024/04/03 01:58:18;;;;;;;0.38;0.38;;;10.80;99.90;;;;;;5008906;28;20412;-78
2024/04/03 02:00:44;;;;;;;0.20;0.20;;;10.80;99.90;;;;;;4994396;28;20065;-78
2024/04/03 02:03:10;;;;;;;0.20;0.20;;;10.80;1.00;;;;;;4977741;28;20049;-78
2024/04/03 02:05:36;;;;;;;0.20;0.20;;;10.80;1.00;;;;;;4994383;28;20049;-78
2024/04/03 02:08:02;;;;;;;0.28;0.28;;;10.80;1.00;;;;;;5026287;28;20053;-78
2024/04/03 02:10:28;;;;;;;0.20;0.20;;;10.80;99.90;;;;;;5010236;28;20095;-78
2024/04/03 02:12:54;;;;;;;0.15;0.15;;;10.80;99.90;;;;;;5010011;28;20120;-78
2024/04/03 02:15:20;;;;;;;0.20;0.20;;;10.80;1.00;;;;;;4994208;28;20053;-78
2024/04/03 02:17:45;;;;;;;0.22;0.22;;;10.80;1.00;;;;;;4993931;28;20076;-77
2024/04/03 02:20:12;;;;;;;0.20;0.20;;;10.80;99.90;;;;;;5009778;28;20049;-78
2024/04/03 02:22:37;;;;;;;0.70;0.20;;;10.80;1.00;;;;;;5009629;28;20056;-78
2024/04/03 02:25:04;;;;;;;0.20;0.20;;;10.80;1.00;;;;;;4993368;28;20049;-78
2024/04/03 02:27:29;;;;;;;0.22;0.22;;;10.80;1.00;;;;;;5009486;28;20076;-77
2024/04/03 02:29:55;;;;;;;0.30;0.30;;;10.80;1.00;;;;;;4993827;28;20425;-77
2024/04/03 02:32:21;;;;;;;0.20;0.20;;;10.90;1.00;;;;;;5010152;28;20057;-78
2024/04/03 02:34:47;;;;;;;0.22;0.22;;;10.80;1.00;;;;;;5025834;28;20076;-77
2024/04/03 02:37:13;;;;;;;0.10;0.10;;;10.90;1.00;;;;;;4992599;28;20071;-78
2024/04/03 02:39:39;;;;;;;0.30;0.30;;;10.90;1.00;;;;;;5009429;28;20408;-78
2024/04/03 02:42:05;;;;;;;0.40;0.30;;;10.90;1.00;;;;;;5025848;28;20068;-78
2024/04/03 02:44:31;;;;;;;0.57;0.35;;;10.90;15.60;;;;;;5010030;28;20104;-79
2024/04/03 02:46:57;;;;;;;0.82;0.40;;;10.90;67.80;;;;;;5025962;28;20053;-78
2024/04/03 02:49:23;;;;;;;0.52;0.30;;;10.90;12.40;;;;;;4993551;28;20117;-79
2024/04/03 02:51:49;;;;;;;0.40;0.40;;;10.90;1.00;;;;;;4992567;28;20050;-78
2024/04/03 02:54:15;;;;;;;0.28;0.20;;;10.90;82.00;;;;;;5009442;28;20053;-78
2024/04/03 02:56:40;;;;;;;0.30;0.30;;;10.90;99.90;;;;;;5009000;28;20183;-79
2024/04/03 02:59:06;;;;;;;0.55;0.55;;;10.90;92.60;;;;;;5025520;28;20052;-78
2024/04/03 03:01:32;;;;;;;0.20;0.20;;;10.90;89.90;;;;;;4993462;28;20144;-78
2024/04/03 03:04:00;;;;;;;0.45;0.45;;;11.00;99.90;;;;;;4993241;28;20440;-77
2024/04/03 03:06:26;;;;;;;0.35;0.30;;;10.90;29.10;;;;;;5008677;28;20076;-78
2024/04/03 03:08:51;;;;;;;0.25;0.22;;;10.90;99.90;;;;;;5009287;28;20128;-78
2024/04/03 03:11:17;;;;;;;0.40;0.40;;;11.00;82.20;;;;;;5008216;28;20049;-78
2024/04/03 03:13:43;;;;;;;0.70;0.50;;;11.00;50.80;;;;;;4993131;28;20060;-78
2024/04/03 03:16:09;;;;;;;0.77;0.30;;;11.00;1.00;;;;;;5008954;28;20053;-77
2024/04/03 03:18:35;;;;;;;0.30;0.20;;;10.90;22.50;;;;;;4989466;28;20061;-78
2024/04/03 03:21:01;;;;;;;0.45;0.30;;;11.00;63.70;;;;;;4989275;28;20049;-77
2024/04/03 03:23:27;;;;;;;0.32;0.32;;;11.00;1.00;;;;;;4989697;28;20065;-77
2024/04/03 03:25:53;;;;;;;0.38;0.30;;;11.00;1.00;;;;;;4992546;28;20053;-78
2024/04/03 03:28:19;;;;;;;0.20;0.20;;;11.00;1.00;;;;;;5008560;28;20053;-78
2024/04/03 03:30:46;;;;;;;0.20;0.20;;;11.00;1.00;;;;;;4992597;28;20052;-80
2024/04/03 03:33:12;;;;;;;0.35;0.30;;;11.00;1.00;;;;;;5008582;28;20064;-78
2024/04/03 03:35:39;;;;;;;0.20;0.20;;;11.00;1.00;;;;;;5008076;28;20053;-78
2024/04/03 03:38:05;;;;;;;0.63;0.43;;;11.00;1.00;;;;;;5008190;28;20061;-78
2024/04/03 03:40:36;;;;;;;0.38;0.20;;;11.00;1.00;;;;;;5008587;28;20733;-78
2024/04/03 03:43:03;;;;;;;0.30;0.30;;;11.00;99.90;;;;;;4992153;28;20053;-77
2024/04/03 03:45:28;;;;;;;0.30;0.30;;;11.00;1.00;;;;;;5008567;28;20049;-78
2024/04/03 03:47:54;;;;;;;0.43;0.43;;;11.10;1.00;;;;;;4992286;28;20053;-78
2024/04/03 03:53:06;;;;;;;0.50;0.50;;;11.10;1.00;;;;;;5010326;28;20111;-77
2024/04/03 03:55:32;;;;;;;0.40;0.40;;;11.10;1.00;;;;;;4992017;28;20049;-79
2024/04/03 03:57:59;;;;;;;0.43;0.40;;;11.10;1.00;;;;;;4991640;28;20424;-78
2024/04/03 04:00:25;;;;;;;0.40;0.40;;;11.20;1.00;;;;;;5008885;28;20064;-78
2024/04/03 04:02:51;;;;;;;0.35;0.30;;;11.20;1.00;;;;;;5008175;28;20464;-78
2024/04/03 04:05:20;;;;;;;0.22;0.17;;;11.20;1.00;;;;;;4992156;28;20452;-78
2024/04/03 04:07:47;;;;;;;0.47;0.40;;;11.20;1.00;;;;;;5008556;28;20053;-78
2024/04/03 04:10:13;;;;;;;0.40;0.35;;;11.20;1.00;;;;;;5024085;28;20100;-78
2024/04/03 04:12:39;;;;;;;0.40;0.40;;;11.20;1.00;;;;;;5008197;28;20057;-78
2024/04/03 04:15:05;;;;;;;0.20;0.20;;;11.10;1.00;;;;;;5008279;28;20054;-78
2024/04/03 04:17:31;;;;;;;0.28;0.28;;;11.20;4.80;;;;;;5005215;28;20481;-78
2024/04/03 04:19:57;;;;;;;0.30;0.30;;;11.20;1.00;;;;;;4992702;28;20133;-79
2024/04/03 04:22:23;;;;;;;0.20;0.20;;;11.20;1.00;;;;;;4992651;28;20065;-79
2024/04/03 04:24:50;;;;;;;0.30;0.30;;;11.20;1.00;;;;;;4992063;28;20057;-78
2024/04/03 04:27:16;;;;;;;0.20;0.20;;;11.20;1.00;;;;;;5015374;28;20053;-78
2024/04/03 04:29:45;;;;;;;0.40;0.30;;;11.20;1.00;;;;;;5012399;28;20401;-79
2024/04/03 04:32:11;;;;;;;0.20;0.20;;;11.20;1.00;;;;;;4995658;28;20056;-79
2024/04/03 04:34:40;;;;;;;0.20;0.20;;;11.20;1.00;;;;;;4995755;28;20053;-78
2024/04/03 04:37:06;;;;;;;0.43;0.40;;;11.30;1.00;;;;;;5010932;28;20405;-79
2024/04/03 04:39:32;;;;;;;0.55;0.38;;;11.30;1.00;;;;;;5011898;28;20056;-78
2024/04/03 04:41:58;;;;;;;0.40;0.40;;;11.30;1.00;;;;;;5011736;28;20096;-78
2024/04/03 04:44:24;;;;;;;0.45;0.30;;;11.30;1.00;;;;;;4995776;28;20061;-78
2024/04/03 04:46:56;;;;;;;0.30;0.30;;;11.30;1.00;;;;;;4995616;28;20147;-78
2024/04/03 04:49:22;;;;;;;0.50;0.20;;;11.30;1.00;;;;;;4992411;28;20061;-79
2024/04/03 04:51:49;;;;;;;0.38;0.38;;;11.30;1.00;;;;;;5025573;28;20053;-77
2024/04/03 04:54:15;;;;;;;0.30;0.30;;;11.30;7.00;;;;;;5024977;28;20053;-79
2024/04/03 04:56:47;;;;;;;0.70;0.40;;;11.30;46.80;;;;;;5025188;28;20049;-79
2024/04/03 04:59:15;;;;;;;0.47;0.40;;;11.30;73.40;;;;;;4987455;28;20567;-79
2024/04/03 05:01:41;;;;;;;0.52;0.30;;;11.30;99.00;;;;;;5025146;28;20048;-79
2024/04/03 05:04:09;;;;;;;0.40;0.38;;;11.30;70.10;;;;;;4988045;28;20057;-79
2024/04/03 05:06:35;;;;;;;0.70;0.50;;;11.30;89.00;;;;;;4996284;28;20127;-79
2024/04/03 05:09:02;;;;;;;0.30;0.30;;;11.40;94.10;;;;;;5021919;28;20061;-79
2024/04/03 05:11:27;;;;;;;0.40;0.40;;;11.40;99.90;;;;;;4988982;28;20053;-76
2024/04/03 05:13:53;;;;;;;0.45;0.32;;;11.40;92.10;;;;;;4989010;28;20100;-76
2024/04/03 05:16:20;;;;;;;0.47;0.20;;;11.40;74.60;;;;;;4973811;28;20395;-76
2024/04/03 05:18:47;;;;;;;0.32;0.30;;;11.50;24.00;;;;;;5008832;28;20408;-79
2024/04/03 05:21:13;;;;;;;0.45;0.30;;;11.40;90.30;;;;;;5009093;28;20373;-78
2024/04/03 05:23:39;;;;;;;0.30;0.30;;;11.50;63.60;;;;;;5025499;28;20499;-79
2024/04/03 05:26:06;;;;;;;0.43;0.40;;;11.50;7.80;;;;;;5007780;28;20369;-78
2024/04/03 05:28:35;;;;;;;0.77;0.50;;;11.50;51.50;;;;;;5005124;28;20057;-79
2024/04/03 05:31:05;;;;;;;0.30;0.30;;;11.50;17.80;;;;;;5022591;28;20046;-79
2024/04/03 05:33:32;;;;;;;1.10;0.45;;;11.50;45.40;;;;;;4991782;28;20061;-78
2024/04/03 05:35:59;;;;;;;0.95;0.40;;;11.50;19.30;;;;;;4992262;28;20070;-78
2024/04/03 05:38:25;;;;;;;0.40;0.40;;;11.50;99.90;;;;;;5007985;28;20049;-78
2024/04/03 05:40:51;;;;;;;0.50;0.28;;;11.50;92.80;;;;;;5006301;28;20049;-78
2024/04/03 05:43:17;;;;;;;0.30;0.30;;;11.50;96.40;;;;;;5003639;28;20583;-79
2024/04/03 05:45:44;;;;;;;0.38;0.38;;;11.50;99.90;;;;;;5004783;28;20224;-79
2024/04/03 05:48:10;;;;;;;0.40;0.30;;;11.50;74.00;;;;;;5007473;28;20068;-79
2024/04/03 05:50:36;;;;;;;0.43;0.40;;;11.50;99.90;;;;;;4991033;28;20492;-79
2024/04/03 05:53:02;;;;;;;0.38;0.32;;;11.60;90.40;;;;;;5007380;28;20110;-78
2024/04/03 05:55:29;;;;;;;0.30;0.30;;;11.60;33.30;;;;;;5007489;28;20734;-78
2024/04/03 05:57:55;;;;;;;0.32;0.32;;;11.60;1.00;;;;;;5020592;28;20060;-78
2024/04/03 06:00:21;;;;;;;0.35;0.35;;;11.60;1.00;;;;;;5004321;28;20050;-78
2024/04/03 06:02:46;;;;;;;0.30;0.30;;;11.60;1.00;;;;;;4971491;28;20611;-78
2024/04/03 06:05:12;;;;;;;0.45;0.45;;;11.70;1.00;;;;;;5018282;28;20067;-78
2024/04/03 06:07:42;;;;;;;0.40;0.40;;;11.70;1.00;;;;;;4987898;28;20077;-79
2024/04/03 06:10:09;;;;;;;0.22;0.22;;;11.70;1.00;;;;;;5004452;28;20488;-79
2024/04/03 06:12:35;;;;;;;0.30;0.30;;;11.80;1.00;;;;;;5003322;28;20057;-78
2024/04/03 06:15:01;;;;;;;0.30;0.30;;;11.80;99.90;;;;;;5004533;28;20060;-79
2024/04/03 06:17:26;;;;;;;0.40;0.40;;;11.90;99.90;;;;;;5006719;28;20091;-77
2024/04/03 06:19:52;;;;;;;0.52;0.30;;;11.90;99.90;;;;;;4991128;28;20123;-78
2024/04/03 06:22:18;;;;;;;0.30;0.30;;;12.00;99.90;;;;;;5006882;28;20065;-78
2024/04/03 06:24:44;;;;;;;0.25;0.25;;;12.00;99.90;;;;;;5003938;28;20076;-77
2024/04/03 06:27:10;;;;;;;0.68;0.30;;;12.00;99.90;;;;;;4987652;28;20428;-78
2024/04/03 06:29:36;;;;;;;0.30;0.30;;;12.00;99.90;;;;;;4984349;28;20053;-77
2024/04/03 06:32:02;;;;;;;0.57;0.30;;;12.00;99.90;;;;;;5002524;28;20049;-78
2024/04/03 06:34:28;;;;;;;0.35;0.30;;;12.00;99.90;;;;;;5007213;28;20053;-78
2024/04/03 06:36:54;;;;;;;0.30;0.30;;;12.00;99.90;;;;;;5006761;28;20068;-78
2024/04/03 06:39:20;;;;;;;0.40;0.40;;;12.00;99.90;;;;;;4985072;28;20382;-78
2024/04/03 06:41:46;;;;;;;0.98;0.30;;;12.00;99.90;;;;;;4986963;28;20061;-79
2024/04/03 06:44:12;;;;;;;0.75;0.40;;;12.00;99.90;;;;;;4991380;28;21017;-77
2024/04/03 06:46:38;;;;;;;0.30;0.30;;;12.10;99.90;;;;;;5007265;28;20130;-78
2024/04/03 06:49:04;;;;;;;0.35;0.30;;;12.00;99.90;;;;;;4990696;28;20099;-78
2024/04/03 06:51:31;;;;;;;0.25;0.25;;;12.10;99.90;;;;;;5020890;28;20533;-78
2024/04/03 06:53:56;;;;;;;0.30;0.30;;;12.10;99.90;;;;;;5002958;28;20516;-78
2024/04/03 06:56:23;;;;;;;0.45;0.30;;;12.20;99.90;;;;;;4987145;28;20136;-78
2024/04/03 06:58:49;;;;;;;0.30;0.30;;;12.10;99.90;;;;;;5019675;28;20050;-78
2024/04/03 07:01:15;;;;;;;0.32;0.20;;;12.20;99.90;;;;;;5020284;28;20520;-78
2024/04/03 07:03:41;;;;;;;0.20;0.20;;;12.20;1.00;;;;;;5006434;28;20493;-78
2024/04/03 07:06:07;;;;;;;0.30;0.30;;;12.10;99.90;;;;;;4988944;28;20063;-78
2024/04/03 07:08:33;;;;;;;0.30;0.30;;;12.10;99.90;;;;;;5018971;28;20060;-77
2024/04/03 07:11:00;;;;;;;0.30;0.30;;;12.20;99.90;;;;;;5003393;28;20053;-77
2024/04/03 07:13:27;;;;;;;0.30;0.30;;;12.20;99.90;;;;;;5022668;28;20107;-77
2024/04/03 07:15:52;;;;;;;0.30;0.30;;;12.30;99.90;;;;;;5006476;28;20052;-78
2024/04/03 07:18:19;;;;;;;0.25;0.25;;;12.30;39.50;;;;;;4998381;28;20512;-79
2024/04/03 07:21:04;;;;;;;0.35;0.35;;;12.40;1.00;;;;;;4989888;28;20060;-78
2024/04/03 07:23:30;;;;;;;0.68;0.40;;;12.40;99.90;;;;;;5022245;28;20508;-78
2024/04/03 07:25:57;;;;;;;0.40;0.40;;;12.40;99.90;;;;;;4988528;28;20353;-80
2024/04/03 07:28:24;;;;;;;0.40;0.40;;;12.50;1.00;;;;;;5002425;28;20057;-78
2024/04/03 07:30:50;;;;;;;0.50;0.50;;;12.60;71.80;;;;;;5003826;28;20061;-78
2024/04/03 07:33:16;;;;;;;1.35;1.13;;;12.60;79.00;;;;;;4989498;28;20057;-79
2024/04/03 07:35:42;;;;;;;0.40;0.40;;;12.70;99.90;;;;;;4989703;28;20438;-77
2024/04/03 07:38:08;;;;;;;0.20;0.20;;;12.70;99.90;;;;;;4985742;28;20120;-77
2024/04/03 07:40:35;;;;;;;1.02;0.50;;;12.80;1.00;;;;;;5005530;28;20049;-77
2024/04/03 07:43:01;;;;;;;0.70;0.60;;;12.80;99.90;;;;;;5005353;28;20057;-77
2024/04/03 07:45:27;;;;;;;0.30;0.30;;;12.90;99.90;;;;;;4986434;28;20106;-78
2024/04/03 07:47:53;;;;;;;0.30;0.30;;;12.90;46.60;;;;;;5006041;28;20061;-79
2024/04/03 07:50:19;;;;;;;0.50;0.30;;;12.90;99.90;;;;;;4986151;28;20108;-78
2024/04/03 07:52:45;;;;;;;0.45;0.40;;;13.00;99.90;;;;;;4975370;28;20056;-78
2024/04/03 07:55:11;;;;;;;0.28;0.28;;;13.10;99.90;;;;;;5005666;28;20058;-78
2024/04/03 07:57:38;;;;;;;0.65;0.30;;;13.10;99.90;;;;;;5002326;28;20053;-78
2024/04/03 08:00:08;;;;;;;0.40;0.38;;;13.10;43.90;;;;;;5018346;28;20459;-78
2024/04/03 08:02:39;;;;;;;0.47;0.40;;;13.10;99.90;;;;;;5004906;28;20412;-78
2024/04/03 08:05:05;;;;;;;0.45;0.40;;;12.90;99.90;;;;;;4998221;28;20050;-79
2024/04/03 08:07:31;;;;;;;0.73;0.47;;;12.80;99.90;;;;;;4998039;28;20103;-77
2024/04/03 08:10:00;;;;;;;0.82;0.70;;;12.70;99.90;;;;;;5018042;28;20053;-78
2024/04/03 08:12:26;;;;;;;0.30;0.30;;;12.60;99.90;;;;;;4999669;28;20057;-78
2024/04/03 08:14:52;;;;;;;0.38;0.38;;;12.50;99.90;;;;;;5002680;28;20053;-78
2024/04/03 08:17:18;;;;;;;1.00;0.50;;;12.50;37.30;;;;;;4989301;28;20072;-79
2024/04/03 08:19:44;;;;;;;0.43;0.43;;;12.40;1.00;;;;;;4972612;28;20057;-78
2024/04/03 08:22:10;;;;;;;1.02;0.70;;;12.50;1.00;;;;;;4988304;28;20434;-78
2024/04/03 08:24:37;;;;;;;1.60;0.47;;;12.50;1.00;;;;;;4986238;28;20123;-78
2024/04/03 08:27:04;;;;;;;0.45;0.30;;;12.50;1.00;;;;;;5017491;28;21316;-78
2024/04/03 08:29:32;;;;;;;0.95;0.50;;;12.60;99.90;;;;;;5021212;28;20060;-79
2024/04/03 08:31:59;;;;;;;0.80;0.50;;;12.70;99.90;;;;;;5021775;28;20584;-79
2024/04/03 08:34:25;;;;;;;2.85;0.65;;;12.70;99.90;;;;;;5005603;28;20160;-78
2024/04/03 08:36:51;;;;;;;0.98;0.60;;;12.70;99.90;;;;;;4985689;28;20485;-78
2024/04/03 08:39:17;;;;;;;0.55;0.40;;;12.70;99.90;;;;;;5005095;28;20071;-78
2024/04/03 08:41:43;;;;;;;0.40;0.30;;;12.80;99.90;;;;;;4988472;28;20057;-79
2024/04/03 08:44:09;;;;;;;0.73;0.40;;;13.00;99.90;;;;;;5019002;28;20061;-79
2024/04/03 08:46:35;;;;;;;1.55;0.60;;;13.00;99.90;;;;;;4964470;28;20049;-79
2024/04/03 08:49:01;;;;;;;1.05;0.60;;;13.10;99.90;;;;;;4986605;28;20108;-79
2024/04/03 08:51:28;;;;;;;0.70;0.50;;;13.30;99.90;;;;;;5004955;28;20053;-79
2024/04/03 08:54:02;;;;;;;0.65;0.50;;;13.30;99.90;;;;;;4988372;28;20054;-77
2024/04/03 08:56:28;;;;;;;0.68;0.60;;;13.40;99.90;;;;;;4984944;28;20058;-78
2024/04/03 08:58:54;;;;;;;0.70;0.40;;;13.50;99.90;;;;;;4968125;28;20068;-78
2024/04/03 09:01:20;;;;;;;0.73;0.43;;;13.60;99.90;;;;;;5018828;28;20057;-77
2024/04/03 09:03:46;;;;;;;0.63;0.45;;;13.70;99.90;;;;;;4975900;28;20061;-78
2024/04/03 09:06:12;;;;;;;0.45;0.45;;;13.70;99.90;;;;;;4988855;28;20054;-78
2024/04/03 09:08:42;;;;;;;1.08;0.60;;;13.90;99.90;;;;;;5002028;28;20065;-78
2024/04/03 09:11:08;;;;;;;0.57;0.45;;;13.90;99.90;;;;;;5022440;28;20387;-77
2024/04/03 09:13:35;;;;;;;0.43;0.40;;;13.80;99.90;;;;;;5006715;28;20107;-78
2024/04/03 09:16:01;;;;;;;0.77;0.50;;;13.90;99.90;;;;;;4991067;28;20061;-78
2024/04/03 09:18:28;;;;;;;0.57;0.50;;;13.90;99.90;;;;;;5022083;28;20119;-78
2024/04/03 09:20:54;;;;;;;0.90;0.50;;;14.00;99.90;;;;;;4989605;28;20045;-78
2024/04/03 09:23:20;;;;;;;0.80;0.60;;;14.20;99.90;;;;;;5006597;28;20539;-78
2024/04/03 09:25:46;;;;;;;0.30;0.30;;;14.20;99.90;;;;;;5005443;28;20073;-77
2024/04/03 09:28:12;;;;;;;0.30;0.30;;;14.20;99.90;;;;;;5005250;28;20057;-78
2024/04/03 09:30:40;;;;;;;0.77;0.50;;;14.20;99.90;;;;;;4989525;28;20068;-78
2024/04/03 09:33:05;;;;;;;0.30;0.30;;;14.00;99.90;;;;;;5005286;28;20080;-78
2024/04/03 09:35:35;;;;;;;0.50;0.50;;;13.90;99.90;;;;;;4988869;28;20053;-76
2024/04/03 09:38:01;;;;;;;1.45;0.55;;;14.00;99.90;;;;;;5006390;28;20127;-77
2024/04/03 09:40:28;;;;;;;0.32;0.28;;;13.90;99.90;;;;;;5008283;28;20049;-76
2024/04/03 09:43:02;;;;;;;0.35;0.30;;;13.80;99.90;;;;;;4991883;28;20060;-76
2024/04/03 09:45:28;;;;;;;0.52;0.50;;;13.80;99.90;;;;;;5008438;28;20527;-77
2024/04/03 09:48:03;;;;;;;0.40;0.40;;;13.90;99.90;;;;;;4991771;28;20061;-77
2024/04/03 09:50:43;;;;;;;0.40;0.40;;;14.10;99.90;;;;;;5001491;28;20057;-77
2024/04/03 09:53:22;;;;;;;0.30;0.30;;;14.30;99.90;;;;;;5014871;28;20053;-77
2024/04/03 09:55:49;;;;;;;0.95;0.50;;;14.40;99.90;;;;;;4991078;28;20103;-77
2024/04/03 09:58:18;;;;;;;0.30;0.30;;;14.50;99.90;;;;;;5004451;28;20064;-77
2024/04/03 10:00:51;;;;;;;0.40;0.40;;;14.80;99.90;;;;;;5020997;28;20062;-76
2024/04/03 10:03:19;;;;;;;;;;;14.90;99.90;;;;;;5016426;28;20052;-77
2024/04/03 10:05:45;;;;;;;0.85;0.40;;;15.00;99.90;;;;;;5021379;28;19983;-76
2024/04/03 10:08:12;;;;;;;1.52;0.60;;;15.10;99.90;;;;;;4987345;28;20065;-78
2024/04/03 10:10:47;;;;;;;0.65;0.43;;;15.00;99.90;;;;;;4989573;28;20420;-76
2024/04/03 10:13:24;;;;;;;0.30;0.30;;;15.00;99.90;;;;;;4990629;28;20429;-77
2024/04/03 10:16:03;;;;;;;0.30;0.30;;;14.90;99.90;;;;;;5006768;28;20385;-77
2024/04/03 10:18:34;;;;;;;0.70;0.40;;;14.80;99.90;;;;;;4989610;28;20053;-77
2024/04/03 10:21:00;;;;;;;1.30;0.40;;;14.60;99.90;;;;;;4988270;28;20061;-77
2024/04/03 10:23:26;;;;;;;0.50;0.40;;;14.60;99.90;;;;;;5003369;28;20041;-77
2024/04/03 10:25:52;;;;;;;0.47;0.40;;;14.50;99.90;;;;;;4987332;28;20072;-77
2024/04/03 10:28:18;;;;;;;0.35;0.30;;;14.40;99.90;;;;;;5003686;28;20046;-77
2024/04/03 10:30:52;;;;;;;0.55;0.50;;;14.40;99.90;;;;;;5005013;28;20069;-77
2024/04/03 10:33:18;;;;;;;0.80;0.63;;;14.30;99.90;;;;;;4975188;28;20049;-77
2024/04/03 10:35:43;;;;;;;1.25;0.60;;;14.30;99.90;;;;;;5006699;28;20053;-77
2024/04/03 10:38:09;;;;;;;0.60;0.40;;;14.20;99.90;;;;;;5006626;28;20099;-77
2024/04/03 10:40:35;;;;;;;0.50;0.50;;;14.20;99.90;;;;;;5006529;28;20053;-77
2024/04/03 10:43:01;;;;;;;0.55;0.50;;;14.30;99.90;;;;;;5006512;28;20053;-77
2024/04/03 10:45:27;;;;;;;0.43;0.43;;;14.20;99.90;;;;;;5023398;28;20123;-76
2024/04/03 10:47:53;;;;;;;0.55;0.50;;;14.30;99.90;;;;;;5003646;28;20049;-76
2024/04/03 10:50:19;;;;;;;0.77;0.50;;;14.30;99.90;;;;;;5003118;28;20073;-76
2024/04/03 10:52:45;;;;;;;0.93;0.75;;;14.30;99.90;;;;;;4987988;28;20088;-76
2024/04/03 10:55:12;;;;;;;0.70;0.50;;;14.40;99.90;;;;;;4990175;28;20046;-76
2024/04/03 10:57:41;;;;;;;1.25;0.60;;;14.40;99.90;;;;;;5006888;28;20061;-76
2024/04/03 11:00:14;;;;;;;1.08;0.63;;;14.30;99.90;;;;;;4987375;28;20068;-77
2024/04/03 11:02:44;;;;;;;1.35;0.63;;;14.20;99.90;;;;;;4987502;28;20057;-76
2024/04/03 11:05:12;;;;;;;1.50;0.77;;;14.00;99.90;;;;;;4990313;28;20404;-78
2024/04/03 11:07:38;;;;;;;0.82;0.40;;;13.80;99.90;;;;;;5002829;28;20054;-77
2024/04/03 11:10:11;;;;;;;0.70;0.70;;;13.80;99.90;;;;;;4986572;28;20126;-77
2024/04/03 11:12:37;;;;;;;;;;;13.80;99.90;;;;;;5003450;28;20550;-77
2024/04/03 11:15:03;;;;;;;2.03;0.70;;;14.00;1.00;;;;;;5020083;28;19924;-77
2024/04/03 11:17:29;;;;;;;0.80;0.50;;;14.30;1.00;;;;;;4987258;28;20045;-77
2024/04/03 11:19:55;;;;;;;1.70;0.93;;;14.60;1.00;;;;;;5004092;28;20140;-77
2024/04/03 11:22:21;;;;;;;0.80;0.60;;;14.80;1.00;;;;;;5002818;28;20049;-77
2024/04/03 11:24:47;;;;;;;0.77;0.52;;;15.00;1.00;;;;;;5002685;28;20102;-77
2024/04/03 11:27:13;;;;;;;0.98;0.70;;;15.20;99.90;;;;;;4986612;28;20796;-77
2024/04/03 11:29:41;;;;;;;0.73;0.40;;;15.60;1.00;;;;;;5002887;28;20065;-77
2024/04/03 11:32:08;;;;;;;0.80;0.55;;;15.80;1.00;;;;;;5017562;28;20057;-75
2024/04/03 11:34:35;;;;;;;0.77;0.60;;;16.00;1.00;;;;;;5022512;28;20064;-76
2024/04/03 11:37:00;;;;;;;1.35;0.60;;;16.10;99.90;;;;;;5016475;28;20045;-75
2024/04/03 11:39:30;;;;;;;1.23;0.80;;;16.00;99.90;;;;;;4988992;28;20107;-75
2024/04/03 11:42:01;;;;;;;1.08;0.50;;;15.70;99.90;;;;;;5005780;28;20400;-74
2024/04/03 11:44:27;;;;;;;1.70;0.60;;;15.40;99.90;;;;;;5003657;28;20049;-75
2024/04/03 11:46:53;;;;;;;0.70;0.50;;;15.00;99.90;;;;;;4969553;28;20498;-76
2024/04/03 11:49:19;;;;;;;0.75;0.55;;;14.70;99.90;;;;;;5004896;28;20558;-76
2024/04/03 11:51:46;;;;;;;0.88;0.50;;;14.40;99.90;;;;;;5002257;28;20053;-75
2024/04/03 11:54:13;;;;;;;0.98;0.60;;;14.20;99.90;;;;;;5001186;28;20057;-76
2024/04/03 11:56:39;;;;;;;0.50;0.50;;;14.00;99.90;;;;;;5002891;28;20056;-76
2024/04/03 11:59:07;;;;;;;1.25;0.57;;;13.80;99.90;;;;;;5004956;28;20065;-76
2024/04/03 12:01:34;;;;;;;0.52;0.52;;;13.60;99.90;;;;;;5004778;28;20053;-75
2024/04/03 12:04:00;;;;;;;0.85;0.50;;;13.60;1.00;;;;;;5005705;28;20053;-75
2024/04/03 12:06:26;;;;;;;1.08;0.50;;;13.30;1.00;;;;;;5005362;28;20104;-81
2024/04/03 12:08:52;;;;;;;0.50;0.50;;;13.10;1.00;;;;;;5021350;28;20069;-82
2024/04/03 12:11:18;;;;;;;1.73;0.65;;;12.90;1.00;;;;;;4985702;28;20072;-80
2024/04/03 12:13:44;;;;;;;0.82;0.55;;;12.90;17.30;;;;;;4998569;28;20122;-80
2024/04/03 12:16:15;;;;;;;0.93;0.60;;;13.00;99.90;;;;;;4999894;28;20073;-80
2024/04/03 12:19:12;;;;;;;0.52;0.52;;;13.00;1.00;;;;;;5000369;28;20045;-81
2024/04/03 12:21:41;;;;;;;0.60;0.50;;;13.40;99.90;;;;;;5003955;28;20501;-80
2024/04/03 12:24:08;;;;;;;0.40;0.40;;;13.60;1.00;;;;;;4998610;28;20057;-80
2024/04/03 12:26:34;;;;;;;1.85;0.40;;;13.60;1.00;;;;;;5000128;28;20091;-81
2024/04/03 12:29:00;;;;;;;0.50;0.50;;;13.60;1.00;;;;;;4983912;28;20073;-80
2024/04/03 12:31:26;;;;;;;0.45;0.35;;;13.60;99.90;;;;;;4999865;28;20529;-78
2024/04/03 12:33:53;;;;;;;0.60;0.40;;;13.40;99.90;;;;;;4999577;28;20045;-82
2024/04/03 12:36:19;;;;;;;0.52;0.30;;;13.30;99.90;;;;;;4998976;28;20520;-79
2024/04/03 12:38:46;;;;;;;0.15;0.10;;;13.10;99.90;;;;;;5016169;28;20087;-82
2024/04/03 12:41:12;;;;;;;0.20;0.20;;;13.00;99.90;;;;;;5000535;28;20073;-79
2024/04/03 12:43:38;;;;;;;0.30;0.30;;;12.90;99.90;;;;;;4988990;28;20127;-80
2024/04/03 12:46:04;;;;;;;0.40;0.40;;;12.90;99.90;;;;;;5004268;28;20626;-80
2024/04/03 12:48:30;;;;;;;0.30;0.30;;;12.90;99.90;;;;;;4997680;28;20532;-79
2024/04/03 12:50:56;;;;;;;0.32;0.32;;;13.10;99.90;;;;;;4971328;28;20054;-78